Observations for Trim Patrick St
| Time | AQI | Temp °C | Hum % | Pres Pa | CO μg/m³ | H₂S μg/m³ | NO μg/m³ | NO₂ μg/m³ | O₃ μg/m³ | SO₂ μg/m³ | PM1 μg/m³ | PM2.5 μg/m³ | PM10 μg/m³ |
|---|---|---|---|---|---|---|---|---|---|---|---|---|---|
| Wednesday 26 August 2026 | |||||||||||||
| 16:30 | 2 | 30.5 | 47 | 69,220 | 0 | 0 | 2.43 | 5.98 | 90.55 | 13.33 | 7.14 | 12.73 | 14 |
| 16:29 | 2 | 30.4 | 47 | 69,210 | 0 | 0 | 2.41 | 13.84 | 169.41 | 12.17 | 7.14 | 13.52 | 14.87 |
| 16:28 | 2 | 30.5 | 45 | 69,220 | 0 | 0 | 2.18 | 3.59 | 78.04 | 13.88 | 6.29 | 12.94 | 14.24 |
| 16:27 | 2 | 30.5 | 45 | 69,212 | 0 | 0 | 2.27 | 14.32 | 181.28 | 12.39 | 7.14 | 12.9 | 14.19 |
| 16:26 | 2 | 30.6 | 47 | 69,202 | 0 | 0 | 2.38 | 5.51 | 73.76 | 13.22 | 5.43 | 10.47 | 11.52 |
| 16:25 | 2 | 30.8 | 47 | 69,216 | 0 | 0 | 2.4 | 12.38 | 97.22 | 13.33 | 5.43 | 12.01 | 13.21 |
| 16:24 | 2 | 30.9 | 44 | 69,201 | 0 | 0 | 2.12 | 12.72 | 120.65 | 13.27 | 7.14 | 13.02 | 14.33 |
| 16:23 | 2 | 31.1 | 43 | 69,210 | 0 | 0 | 2.09 | 12.28 | 84.89 | 13.22 | 7.14 | 13.84 | 15.23 |
| 16:22 | 2 | 31.3 | 42 | 69,228 | 0 | 0 | 2.08 | 15.24 | 113.47 | 13.38 | 6.29 | 12.34 | 13.57 |
| 16:21 | 2 | 31.4 | 44 | 69,220 | 0 | 0 | 2.23 | 13.14 | 88.09 | 12.51 | 8 | 13.77 | 15.14 |
| 16:20 | 2 | 31.5 | 44 | 69,206 | 0 | 0 | 2.27 | 9.74 | 82.74 | 13.2 | 7.14 | 13.78 | 15.16 |
| 16:19 | 2 | 31.5 | 44 | 69,220 | 0 | 0 | 2.39 | 11.71 | 76.23 | 13.82 | 6.29 | 13.73 | 15.11 |
| 16:18 | 2 | 31.4 | 47 | 69,234 | 0 | 0 | 2.62 | 19.94 | 132.08 | 11.92 | 7.14 | 13.55 | 14.91 |
| 16:17 | 2 | 31.4 | 44 | 69,218 | 0 | 0 | 2.35 | 8.8 | 75.39 | 12.7 | 5.43 | 12.24 | 13.46 |
| 16:16 | 2 | 31.4 | 46 | 69,232 | 0 | 0 | 2.53 | 13.42 | 85 | 14.08 | 7.14 | 14.38 | 15.82 |
| 16:15 | 2 | 31.3 | 43 | 69,218 | 0 | 0 | 2.3 | 13.56 | 105.93 | 13.42 | 4.57 | 11.53 | 12.68 |
| 16:14 | 2 | 31.3 | 42 | 69,230 | 0 | 0 | 2.28 | 13.25 | 110.82 | 12.48 | 6.29 | 13.17 | 14.48 |
| 16:13 | 2 | 31.3 | 46 | 69,248 | 0 | 0 | 2.56 | 0.38 | 72.07 | 14.61 | 7.14 | 13.63 | 14.99 |
| 16:12 | 2 | 31.4 | 44 | 69,242 | 0 | 0 | 2.44 | 6.03 | 116.45 | 14.09 | 6.29 | 12.21 | 13.43 |
| 16:10 | 2 | 31.5 | 45 | 69,258 | 0 | 0 | 2.59 | 0 | 72.35 | 14.99 | 6.29 | 12.18 | 13.39 |